This is the latest recevied weather packets stored in our database for station/object CE4TQY-10. If no packets are shown the sender has not sent any weather packets the latest 10 day(s).
| Time | Temp. | Humidity | Pressure | Rain* | Wind** | Luminosity | Snow |
|---|---|---|---|---|---|---|---|
| 1777784568 | 12.22° C | 64% | 1019.8 hPa | - | - | - | - |
| 1777783667 | 12.22° C | 63% | 1019.9 hPa | - | - | - | - |
| 1777782766 | 12.78° C | 62% | 1020.1 hPa | - | - | - | - |
| 1777781865 | 13.33° C | 61% | 1020.4 hPa | - | - | - | - |
| 1777780964 | 13.33° C | 64% | 1020.4 hPa | - | - | - | - |
| 1777780096 | 13.89° C | 62% | 1020.6 hPa | - | - | - | - |
| 1777780063 | 13.89° C | 62% | 1020.6 hPa | - | - | - | - |
| 1777779162 | 15° C | 58% | 1020.5 hPa | - | - | - | - |
| 1777778261 | 15° C | 59% | 1020.5 hPa | - | - | - | - |
| 1777777360 | 15° C | 59% | 1020.4 hPa | - | - | - | - |
| 1777776459 | 15.56° C | 57% | 1020.1 hPa | - | - | - | - |
| 1777775559 | 15.56° C | 54% | 1020 hPa | - | - | - | - |
| 1777774658 | 14.44° C | 56% | 1019.9 hPa | - | - | - | - |
| 1777773756 | 15.56° C | 54% | 1019.9 hPa | - | - | - | - |
| 1777772855 | 15° C | 53% | 1019.9 hPa | - | - | - | - |
| 1777771954 | 15.56° C | 55% | 1020.1 hPa | - | - | - | - |
| 1777771107 | 15° C | 57% | 1020.1 hPa | - | - | - | - |
| 1777771053 | 15° C | 57% | 1020.1 hPa | - | - | - | - |
| 1777770152 | 15.56° C | 59% | 1019.9 hPa | - | - | - | - |
| 1777769251 | 16.67° C | 57% | 1020.3 hPa | - | - | - | - |
| 1777768350 | 16.67° C | 56% | 1020.1 hPa | - | - | - | - |
| 1777767449 | 18.33° C | 50% | 1020.3 hPa | - | - | - | - |
| 1777766548 | 17.22° C | 52% | 1020.1 hPa | - | - | - | - |
| 1777765647 | 17.22° C | 56% | 1019.7 hPa | - | - | - | - |
| 1777764747 | 17.22° C | 55% | 1019.5 hPa | - | - | - | - |
* Rain since midnight (hover to see other rain measurements)
** Current wind speed in m/s (hover to see current wind gust speed)